createdAt,value
2017-12-05T00:00:52.750Z,4.54
2017-12-05T00:03:28.866Z,4.29
2017-12-05T00:06:00.325Z,3.89
2017-12-05T00:08:32.642Z,3.92
2017-12-05T00:11:02.469Z,4.46
2017-12-05T00:13:36.374Z,4.83
2017-12-05T00:16:07.313Z,4.71
2017-12-05T00:18:39.802Z,4.55
2017-12-05T00:21:13.255Z,4.61
2017-12-05T00:23:58.528Z,4.46
2017-12-05T00:26:32.934Z,4.59
2017-12-05T00:29:06.412Z,4.97
2017-12-05T00:31:40.254Z,5.02
2017-12-05T00:34:12.381Z,4.90
2017-12-05T00:36:44.630Z,5.21
2017-12-05T00:39:14.706Z,4.93
2017-12-05T00:41:46.322Z,4.94
2017-12-05T00:44:18.359Z,5.11
2017-12-05T00:46:53.557Z,4.90
2017-12-05T00:49:23.431Z,5.09
2017-12-05T00:51:57.593Z,4.75
2017-12-05T00:54:35.472Z,4.59
2017-12-05T00:57:07.371Z,4.41
2017-12-05T00:59:38.780Z,4.02
2017-12-05T01:02:09.433Z,4.20
2017-12-05T01:04:43.256Z,4.49
2017-12-05T01:07:13.859Z,4.62
2017-12-05T01:09:49.367Z,4.63
2017-12-05T01:12:21.401Z,4.78
2017-12-05T01:14:59.443Z,4.98
2017-12-05T01:17:31.949Z,4.83
2017-12-05T01:20:07.701Z,4.79
2017-12-05T01:22:37.440Z,4.92
2017-12-05T01:25:14.134Z,4.93
2017-12-05T01:27:47.775Z,4.95
2017-12-05T01:30:18.043Z,4.88
2017-12-05T01:32:49.594Z,4.80
2017-12-05T01:35:26.467Z,5.14
2017-12-05T01:37:59.390Z,5.16
2017-12-05T01:40:31.610Z,5.03
2017-12-05T01:43:03.309Z,4.90
2017-12-05T01:45:42.170Z,5.03
2017-12-05T01:48:16.502Z,5.08
2017-12-05T01:50:48.277Z,5.16
2017-12-05T01:53:22.319Z,4.93
2017-12-05T01:55:53.611Z,5.11
2017-12-05T01:58:24.732Z,5.05
2017-12-05T02:00:55.259Z,4.97
2017-12-05T02:03:28.392Z,4.82
2017-12-05T02:06:09.200Z,4.92
2017-12-05T02:08:41.788Z,4.91
2017-12-05T02:11:14.660Z,4.94
2017-12-05T02:13:46.156Z,4.45
2017-12-05T02:16:18.107Z,4.58
2017-12-05T02:18:50.428Z,4.92
2017-12-05T02:21:28.810Z,5.17
2017-12-05T02:23:59.619Z,5.13
2017-12-05T02:26:32.794Z,5.20
2017-12-05T02:29:04.469Z,5.33
2017-12-05T02:31:37.541Z,5.54
2017-12-05T02:34:09.653Z,5.67
2017-12-05T02:36:41.245Z,5.45
2017-12-05T02:39:12.391Z,5.24
2017-12-05T02:41:45.777Z,4.60
2017-12-05T02:44:16.930Z,4.53
2017-12-05T02:46:54.581Z,4.60
2017-12-05T02:49:28.006Z,4.63
2017-12-05T02:52:00.834Z,4.96
2017-12-05T02:54:33.381Z,5.07
2017-12-05T02:57:06.861Z,5.16
2017-12-05T02:59:39.328Z,5.22
2017-12-05T03:02:14.329Z,5.33
2017-12-05T03:04:46.120Z,5.48
2017-12-05T03:07:18.979Z,5.90
2017-12-05T03:09:51.652Z,5.83
2017-12-05T03:12:25.361Z,5.64
2017-12-05T03:14:56.456Z,5.72
2017-12-05T03:17:28.499Z,5.52
2017-12-05T03:19:58.790Z,5.78
2017-12-05T03:22:31.337Z,5.68
2017-12-05T03:25:02.110Z,5.51
2017-12-05T03:27:33.605Z,5.45
2017-12-05T03:30:05.920Z,5.61
2017-12-05T03:32:39.905Z,5.57
2017-12-05T03:35:22.370Z,5.55
2017-12-05T03:37:57.379Z,5.24
2017-12-05T03:40:32.509Z,5.26
2017-12-05T03:43:04.268Z,5.53
2017-12-05T03:45:44.969Z,5.43
2017-12-05T03:48:17.820Z,5.34
2017-12-05T03:50:49.580Z,5.26
2017-12-05T03:53:22.680Z,5.66
2017-12-05T03:55:57.790Z,5.66
2017-12-05T03:58:29.248Z,5.55
2017-12-05T04:01:02.152Z,5.53
2017-12-05T04:03:35.353Z,5.21
2017-12-05T04:06:07.160Z,5.33
2017-12-05T04:08:36.684Z,5.73
2017-12-05T04:11:06.231Z,5.65
2017-12-05T04:13:37.268Z,5.57
2017-12-05T04:16:07.378Z,5.58
2017-12-05T04:18:39.968Z,5.63
2017-12-05T04:21:10.351Z,5.92
2017-12-05T04:23:42.230Z,5.76
2017-12-05T04:26:20.451Z,5.72
2017-12-05T04:28:50.361Z,5.73
2017-12-05T04:31:20.469Z,5.72
2017-12-05T04:33:50.351Z,5.53
2017-12-05T04:36:21.095Z,5.74
2017-12-05T04:38:52.532Z,5.57
2017-12-05T04:41:24.708Z,5.59
2017-12-05T04:43:54.707Z,5.05
2017-12-05T04:46:26.469Z,4.99
2017-12-05T04:48:56.227Z,5.17
2017-12-05T04:51:26.489Z,5.29
2017-12-05T04:53:57.431Z,5.24
2017-12-05T04:56:27.393Z,5.35
2017-12-05T04:58:57.284Z,5.20
2017-12-05T05:01:27.076Z,5.21
2017-12-05T05:03:56.636Z,5.26
2017-12-05T05:06:30.368Z,5.18
2017-12-05T05:09:00.339Z,5.04
2017-12-05T05:11:31.904Z,4.95
2017-12-05T05:14:02.728Z,4.94
2017-12-05T05:16:34.458Z,5.18
2017-12-05T05:19:05.294Z,5.19
2017-12-05T05:21:35.749Z,5.10
2017-12-05T05:24:24.312Z,5.03
2017-12-05T05:26:54.203Z,5.00
2017-12-05T05:29:25.441Z,4.99
2017-12-05T05:32:01.626Z,5.10
2017-12-05T05:34:33.090Z,5.17
2017-12-05T05:37:23.195Z,4.90
2017-12-05T05:40:02.862Z,4.74
2017-12-05T05:42:36.289Z,4.80
2017-12-05T05:45:10.558Z,5.07
2017-12-05T05:47:41.344Z,5.10
2017-12-05T05:50:14.017Z,5.13
2017-12-05T05:52:46.465Z,5.28
2017-12-05T05:55:23.375Z,5.31
2017-12-05T05:57:54.861Z,5.22
2017-12-05T06:00:29.176Z,5.37
2017-12-05T06:03:04.350Z,5.48
2017-12-05T06:05:36.260Z,5.40
2017-12-05T06:08:08.684Z,5.48
2017-12-05T06:10:39.982Z,5.59
2017-12-05T06:13:11.714Z,5.55
2017-12-05T06:15:59.175Z,5.59
2017-12-05T06:18:52.648Z,5.71
2017-12-05T06:21:29.386Z,5.68
2017-12-05T06:24:01.637Z,5.58
2017-12-05T06:26:34.804Z,5.53
2017-12-05T06:29:06.760Z,5.93
2017-12-05T06:31:39.315Z,5.99
2017-12-05T06:34:09.107Z,5.90
2017-12-05T06:36:41.779Z,5.75
2017-12-05T06:39:12.037Z,5.61
2017-12-05T06:41:44.413Z,5.35
2017-12-05T06:44:16.846Z,4.93
2017-12-05T06:46:48.229Z,4.90
2017-12-05T06:49:18.684Z,5.13
2017-12-05T06:51:48.116Z,5.30
2017-12-05T06:54:20.180Z,5.44
2017-12-05T06:56:50.275Z,5.67
2017-12-05T06:59:22.287Z,5.54
2017-12-05T07:01:53.174Z,5.48
2017-12-05T07:04:24.132Z,5.44
2017-12-05T07:06:54.456Z,5.39
2017-12-05T07:09:26.072Z,5.53
2017-12-05T07:11:57.211Z,5.48
2017-12-05T07:14:27.446Z,5.72
2017-12-05T07:16:58.064Z,5.68
2017-12-05T07:19:28.671Z,5.96
2017-12-05T07:21:59.665Z,6.01
2017-12-05T07:24:30.375Z,6.09
2017-12-05T07:27:00.558Z,6.11
2017-12-05T07:29:31.395Z,6.29
2017-12-05T07:32:02.283Z,6.41
2017-12-05T07:34:35.387Z,6.54
2017-12-05T07:37:07.065Z,6.69
2017-12-05T07:39:37.242Z,7.11
2017-12-05T07:42:11.201Z,7.02
2017-12-05T07:44:46.038Z,7.04
2017-12-05T07:47:16.214Z,7.19
2017-12-05T07:49:47.099Z,7.27
2017-12-05T07:52:17.577Z,7.46
2017-12-05T07:54:51.692Z,7.49
2017-12-05T07:57:21.780Z,7.50
2017-12-05T07:59:55.276Z,7.43
2017-12-05T08:02:26.456Z,7.46
2017-12-05T08:04:56.268Z,7.57
2017-12-05T08:07:30.542Z,7.65
2017-12-05T08:10:11.277Z,7.59
2017-12-05T08:12:42.636Z,7.60
2017-12-05T08:15:14.287Z,7.64
2017-12-05T08:17:46.575Z,7.92
2017-12-05T08:20:17.317Z,7.72
2017-12-05T08:22:47.891Z,7.68
2017-12-05T08:25:18.127Z,7.58
2017-12-05T08:27:48.472Z,7.78
2017-12-05T08:30:19.418Z,7.55
2017-12-05T08:32:49.425Z,7.85
2017-12-05T08:35:19.090Z,7.79
2017-12-05T08:37:50.380Z,8.13
2017-12-05T08:40:21.700Z,8.42
2017-12-05T08:42:52.480Z,8.52
2017-12-05T08:45:22.632Z,8.71
2017-12-05T08:47:57.776Z,8.79
2017-12-05T08:50:28.200Z,8.88
2017-12-05T08:53:01.174Z,9.10
2017-12-05T08:55:31.382Z,9.12
2017-12-05T08:58:01.047Z,9.22
2017-12-05T09:00:31.111Z,9.41
2017-12-05T09:03:00.976Z,9.15
2017-12-05T09:05:34.681Z,9.24
2017-12-05T09:08:04.643Z,9.53
2017-12-05T09:10:36.204Z,9.61
2017-12-05T09:13:07.155Z,9.72
2017-12-05T09:15:37.205Z,9.88
2017-12-05T09:18:08.240Z,9.80
2017-12-05T09:20:38.455Z,10.08
2017-12-05T09:23:09.685Z,9.91
2017-12-05T09:25:40.244Z,10.10
2017-12-05T09:28:10.314Z,10.06
2017-12-05T09:30:46.474Z,10.23
2017-12-05T09:33:16.375Z,10.36
2017-12-05T09:35:46.086Z,10.58
2017-12-05T09:38:17.625Z,10.51
2017-12-05T09:40:48.416Z,10.69
2017-12-05T09:43:19.761Z,10.72
2017-12-05T09:45:51.080Z,10.53
2017-12-05T09:48:25.306Z,10.55
2017-12-05T09:50:55.098Z,10.68
2017-12-05T09:53:24.700Z,10.66
2017-12-05T09:55:56.140Z,10.87
2017-12-05T09:58:26.400Z,11.01
2017-12-05T10:00:58.730Z,11.15
2017-12-05T10:03:28.230Z,11.23
2017-12-05T10:05:58.064Z,11.37
2017-12-05T10:08:28.723Z,11.36
2017-12-05T10:10:59.041Z,11.22
2017-12-05T10:13:29.145Z,11.45
2017-12-05T10:15:59.676Z,11.59
2017-12-05T10:18:29.255Z,11.64
2017-12-05T10:20:59.449Z,12.02
2017-12-05T10:23:29.695Z,12.08
2017-12-05T10:26:00.951Z,12.33
2017-12-05T10:28:32.727Z,12.34
2017-12-05T10:31:04.335Z,12.36
2017-12-05T10:33:37.063Z,12.39
2017-12-05T10:36:07.056Z,12.45
2017-12-05T10:38:37.197Z,12.67
2017-12-05T10:41:08.592Z,12.90
2017-12-05T10:46:17.759Z,13.00
2017-12-05T10:48:48.308Z,13.08
2017-12-05T10:51:18.200Z,13.27
2017-12-05T10:53:48.315Z,13.27
2017-12-05T10:56:18.450Z,13.14
2017-12-05T10:58:55.631Z,13.21
2017-12-05T11:01:28.476Z,13.24
2017-12-05T11:04:00.452Z,13.06
2017-12-05T11:06:31.614Z,12.85
2017-12-05T11:09:01.400Z,12.79
2017-12-05T11:11:32.101Z,13.07
2017-12-05T11:14:03.429Z,12.86
2017-12-05T11:16:34.525Z,12.87
2017-12-05T11:19:05.124Z,13.00
2017-12-05T11:21:40.417Z,13.31
2017-12-05T11:24:10.367Z,13.27
2017-12-05T11:26:42.367Z,13.56
2017-12-05T11:29:12.180Z,13.49
2017-12-05T11:31:42.140Z,13.65
2017-12-05T11:34:14.741Z,13.41
2017-12-05T11:36:48.130Z,13.12
2017-12-05T11:39:18.316Z,13.06
2017-12-05T11:41:48.795Z,13.00
2017-12-05T11:44:20.460Z,13.10
2017-12-05T11:46:50.278Z,12.85
2017-12-05T11:49:20.744Z,13.00
2017-12-05T11:51:50.452Z,13.02
2017-12-05T11:54:28.602Z,13.23
2017-12-05T11:56:58.156Z,13.30
2017-12-05T11:59:28.337Z,13.10
2017-12-05T12:01:59.163Z,13.12
2017-12-05T12:04:29.416Z,12.97
2017-12-05T12:06:59.462Z,13.47
2017-12-05T12:09:29.357Z,13.77
2017-12-05T12:12:00.626Z,13.85
2017-12-05T12:14:30.332Z,14.07
2017-12-05T12:17:00.239Z,14.35
2017-12-05T12:19:34.241Z,14.34
2017-12-05T12:22:04.822Z,14.37
2017-12-05T12:24:35.051Z,14.41
2017-12-05T12:27:06.795Z,14.62
2017-12-05T12:29:36.723Z,14.82
2017-12-05T12:32:08.096Z,14.88
2017-12-05T12:34:40.318Z,14.80
2017-12-05T12:37:11.287Z,14.23
2017-12-05T22:33:01.770Z,8.91
2017-12-05T22:35:33.552Z,8.28
2017-12-05T22:38:04.698Z,8.08
2017-12-05T22:40:36.402Z,7.86
2017-12-05T22:43:07.633Z,7.66
2017-12-05T22:45:40.177Z,7.46
2017-12-05T22:48:13.422Z,7.57
2017-12-05T22:50:44.604Z,7.66
2017-12-05T22:53:16.743Z,7.34
2017-12-05T22:55:48.362Z,7.25
2017-12-05T22:58:20.458Z,7.40
2017-12-05T23:01:03.264Z,7.27
2017-12-05T23:03:36.428Z,7.17
2017-12-05T23:06:14.969Z,7.13
2017-12-05T23:08:53.004Z,6.95
2017-12-05T23:11:28.134Z,7.16
2017-12-05T23:14:00.649Z,7.15
2017-12-05T23:16:32.198Z,6.91
2017-12-05T23:19:07.625Z,6.92
2017-12-05T23:21:42.358Z,6.98
2017-12-05T23:24:17.763Z,6.80
2017-12-05T23:26:55.607Z,6.86
2017-12-05T23:29:35.552Z,7.09
2017-12-05T23:32:08.438Z,7.36
2017-12-05T23:34:45.920Z,7.32
2017-12-05T23:37:27.467Z,7.26
2017-12-05T23:40:00.420Z,7.14
2017-12-05T23:42:37.180Z,6.77
2017-12-05T23:45:13.647Z,6.96
